This is the latest recevied weather packets stored in our database for station/object IU1FIL-23. If no packets are shown the sender has not sent any weather packets the latest 10 day(s).
| Time | Temp. | Humidity | Pressure | Rain* | Wind** | Luminosity | Snow |
|---|---|---|---|---|---|---|---|
| 1777543520 | 21.11° C | 46% | 1022.2 hPa | - | - | - | - |
| 1777542916 | 22.22° C | 47% | 1022.1 hPa | - | - | - | - |
| 1777542311 | 23.33° C | 47% | 1022.2 hPa | - | - | - | - |
| 1777541708 | 25° C | 44% | 1022 hPa | - | - | - | - |
| 1777541103 | 26.11° C | 39% | 1022 hPa | - | - | - | - |
| 1777540499 | 24.44° C | 45% | 1022 hPa | - | - | - | - |
| 1777539895 | 22.22° C | 50% | 1021.9 hPa | - | - | - | - |
| 1777539291 | 20° C | 57% | 1021.8 hPa | - | - | - | - |
| 1777538673 | 20.56° C | 58% | 1021.7 hPa | - | - | - | - |
| 1777538069 | 21.11° C | 57% | 1021.7 hPa | - | - | - | - |
| 1777537465 | 19.44° C | 58% | 1021.6 hPa | - | - | - | - |
| 1777536861 | 19.44° C | 63% | 1021.5 hPa | - | - | - | - |
| 1777536257 | 16.67° C | 71% | 1021.4 hPa | - | - | - | - |
| 1777535652 | 16.67° C | 70% | 1021.2 hPa | - | - | - | - |
| 1777535048 | 16.11° C | 72% | 1021.1 hPa | - | - | - | - |
| 1777534444 | 14.44° C | 78% | 1021 hPa | - | - | - | - |
| 1777533840 | 14.44° C | 81% | 1021 hPa | - | - | - | - |
| 1777533236 | 13.33° C | 83% | 1021 hPa | - | - | - | - |
| 1777532632 | 12.78° C | 84% | 1020.8 hPa | - | - | - | - |
| 1777532028 | 12.78° C | 83% | 1020.8 hPa | - | - | - | - |
| 1777531424 | 12.78° C | 88% | 1020.6 hPa | - | - | - | - |
| 1777530819 | 12.78° C | 87% | 1020.5 hPa | - | - | - | - |
| 1777530215 | 12.78° C | 86% | 1020.5 hPa | - | - | - | - |
| 1777529611 | 12.22° C | 87% | 1020.4 hPa | - | - | - | - |
| 1777529007 | 12.22° C | 86% | 1020.4 hPa | - | - | - | - |
* Rain since midnight (hover to see other rain measurements)
** Current wind speed in m/s (hover to see current wind gust speed)